createdAt,value
2018-11-02T00:00:01.801Z,20.40
2018-11-02T00:01:01.639Z,20.40
2018-11-02T00:02:01.713Z,20.40
2018-11-02T00:03:01.687Z,20.40
2018-11-02T00:04:01.716Z,20.40
2018-11-02T00:05:01.702Z,20.34
2018-11-02T00:06:01.739Z,20.44
2018-11-02T00:07:01.836Z,20.36
2018-11-02T00:08:01.758Z,20.37
2018-11-02T00:09:01.762Z,20.34
2018-11-02T00:10:01.778Z,20.36
2018-11-02T00:11:01.793Z,20.39
2018-11-02T00:12:01.966Z,20.44
2018-11-02T00:13:01.820Z,20.40
2018-11-02T00:14:01.854Z,20.27
2018-11-02T00:15:01.850Z,20.36
2018-11-02T00:16:01.863Z,20.33
2018-11-02T00:17:02.056Z,20.27
2018-11-02T00:18:01.908Z,20.26
2018-11-02T00:19:01.957Z,20.30
2018-11-02T00:20:01.934Z,20.22
2018-11-02T00:21:01.966Z,20.32
2018-11-02T00:22:02.003Z,20.32
2018-11-02T00:23:01.979Z,20.22
2018-11-02T00:24:01.996Z,20.27
2018-11-02T00:25:02.012Z,20.24
2018-11-02T00:26:02.216Z,20.29
2018-11-02T00:27:02.051Z,20.17
2018-11-02T00:28:02.046Z,20.15
2018-11-02T00:29:02.077Z,20.19
2018-11-02T00:30:02.082Z,20.14
2018-11-02T00:31:02.263Z,20.18
2018-11-02T00:32:02.241Z,20.10
2018-11-02T00:33:02.121Z,20.03
2018-11-02T00:34:02.128Z,20.00
2018-11-02T00:35:02.152Z,20.07
2018-11-02T00:36:02.251Z,20.08
2018-11-02T00:37:02.196Z,20.00
2018-11-02T00:38:02.191Z,19.96
2018-11-02T00:39:02.224Z,19.96
2018-11-02T00:40:02.226Z,19.97
2018-11-02T00:41:02.335Z,19.89
2018-11-02T00:42:02.243Z,19.79
2018-11-02T00:43:02.441Z,19.77
2018-11-02T00:44:02.323Z,19.79
2018-11-02T00:45:02.288Z,19.74
2018-11-02T00:46:02.323Z,19.78
2018-11-02T00:47:02.344Z,19.74
2018-11-02T00:48:02.397Z,19.75
2018-11-02T00:49:02.346Z,19.66
2018-11-02T00:50:02.372Z,19.64
2018-11-02T00:51:02.399Z,19.62
2018-11-02T00:52:02.405Z,19.66
2018-11-02T00:53:02.475Z,19.60
2018-11-02T00:54:02.483Z,19.60
2018-11-02T00:55:02.592Z,19.48
2018-11-02T00:56:02.517Z,19.53
2018-11-02T00:57:02.531Z,19.55
2018-11-02T00:58:02.484Z,19.49
2018-11-02T00:59:02.520Z,19.37
2018-11-02T01:00:02.681Z,19.38
2018-11-02T01:01:02.584Z,19.35
2018-11-02T01:02:02.552Z,19.29
2018-11-02T01:03:02.587Z,19.29
2018-11-02T01:04:02.575Z,19.29
2018-11-02T01:05:02.754Z,19.24
2018-11-02T01:06:02.610Z,19.29
2018-11-02T01:07:02.643Z,19.23
2018-11-02T01:08:02.635Z,19.24
2018-11-02T01:09:02.649Z,19.24
2018-11-02T01:10:02.721Z,19.22
2018-11-02T01:11:02.681Z,19.26
2018-11-02T01:12:02.699Z,19.24
2018-11-02T01:13:02.742Z,19.19
2018-11-02T01:14:02.729Z,19.26
2018-11-02T01:15:02.784Z,19.15
2018-11-02T01:16:02.797Z,19.15
2018-11-02T01:17:02.769Z,19.20
2018-11-02T01:18:02.783Z,19.12
2018-11-02T01:19:02.816Z,19.05
2018-11-02T01:20:02.850Z,19.08
2018-11-02T01:21:02.842Z,19.05
2018-11-02T01:22:07.799Z,18.94
2018-11-02T01:23:02.847Z,18.98
2018-11-02T01:24:03.119Z,18.92
2018-11-02T01:25:03.031Z,18.92
2018-11-02T01:26:02.904Z,18.86
2018-11-02T01:27:02.928Z,18.83
2018-11-02T01:28:02.909Z,18.81
2018-11-02T01:29:03.056Z,18.88
2018-11-02T01:30:03.221Z,18.81
2018-11-02T01:31:02.964Z,18.81
2018-11-02T01:32:02.979Z,18.81
2018-11-02T01:33:02.983Z,18.88
2018-11-02T01:34:03.033Z,18.86
2018-11-02T01:35:03.064Z,18.86
2018-11-02T01:36:03.024Z,18.89
2018-11-02T01:37:03.106Z,18.78
2018-11-02T01:38:03.084Z,18.76
2018-11-02T01:39:03.128Z,18.76
2018-11-02T01:40:03.087Z,18.66
2018-11-02T01:41:03.110Z,18.76
2018-11-02T01:42:03.255Z,18.68
2018-11-02T01:43:03.132Z,18.82
2018-11-02T01:44:03.139Z,18.76
2018-11-02T01:45:03.148Z,18.67
2018-11-02T01:46:03.184Z,18.68
2018-11-02T01:47:03.333Z,18.73
2018-11-02T01:48:03.321Z,18.76
2018-11-02T01:49:03.206Z,18.76
2018-11-02T01:50:03.348Z,18.76
2018-11-02T01:51:03.256Z,18.67
2018-11-02T01:52:03.306Z,18.68
2018-11-02T01:53:03.282Z,18.67
2018-11-02T01:54:03.434Z,18.67
2018-11-02T01:55:03.301Z,18.61
2018-11-02T01:56:03.303Z,18.67
2018-11-02T01:57:03.350Z,18.64
2018-11-02T01:58:03.353Z,18.66
2018-11-02T01:59:03.410Z,18.64
2018-11-02T02:00:03.376Z,18.64
2018-11-02T02:01:03.384Z,18.71
2018-11-02T02:02:03.435Z,18.64
2018-11-02T02:03:03.414Z,18.58
2018-11-02T02:04:03.482Z,18.61
2018-11-02T02:05:03.464Z,18.58
2018-11-02T02:06:03.441Z,18.58
2018-11-02T02:07:03.468Z,18.49
2018-11-02T02:08:03.535Z,18.49
2018-11-02T02:09:03.481Z,18.53
2018-11-02T02:10:03.511Z,18.60
2018-11-02T02:11:03.511Z,18.52
2018-11-02T02:12:03.531Z,18.63
2018-11-02T02:13:03.765Z,18.57
2018-11-02T02:14:03.558Z,18.53
2018-11-02T02:15:03.699Z,18.57
2018-11-02T02:16:03.587Z,18.63
2018-11-02T02:17:03.666Z,18.60
2018-11-02T02:18:03.762Z,18.71
2018-11-02T02:19:03.633Z,18.71
2018-11-02T02:20:03.768Z,18.66
2018-11-02T02:21:03.703Z,18.68
2018-11-02T02:22:03.679Z,18.76
2018-11-02T02:23:03.848Z,18.68
2018-11-02T02:24:03.702Z,18.70
2018-11-02T02:25:03.737Z,18.64
2018-11-02T02:26:03.739Z,18.67
2018-11-02T02:27:03.733Z,18.64
2018-11-02T02:28:03.916Z,18.71
2018-11-02T02:29:03.772Z,18.67
2018-11-02T02:30:03.798Z,18.63
2018-11-02T02:31:03.789Z,18.71
2018-11-02T02:32:03.845Z,18.70
2018-11-02T02:33:03.981Z,18.64
2018-11-02T02:34:03.962Z,18.64
2018-11-02T02:35:03.860Z,18.67
2018-11-02T02:36:03.871Z,18.74
2018-11-02T02:37:03.934Z,18.78
2018-11-02T02:38:04.044Z,18.82
2018-11-02T02:39:03.923Z,18.78
2018-11-02T02:40:03.933Z,18.89
2018-11-02T02:41:03.942Z,18.91
2018-11-02T02:42:03.947Z,18.91
2018-11-02T02:43:04.239Z,18.89
2018-11-02T02:44:03.984Z,18.82
2018-11-02T02:45:03.991Z,18.85
2018-11-02T02:46:04.005Z,18.89
2018-11-02T02:47:04.145Z,18.81
2018-11-02T02:48:04.205Z,18.76
2018-11-02T02:49:04.052Z,18.82
2018-11-02T02:50:04.189Z,18.82
2018-11-02T02:51:04.080Z,18.96
2018-11-02T02:52:04.093Z,18.88
2018-11-02T02:53:04.258Z,18.86
2018-11-02T02:54:04.241Z,18.91
2018-11-02T02:55:04.131Z,18.97
2018-11-02T02:56:04.149Z,18.96
2018-11-02T02:57:04.151Z,19.01
2018-11-02T02:58:04.335Z,19.07
2018-11-02T02:59:04.194Z,19.07
2018-11-02T03:00:04.329Z,19.08
2018-11-02T03:01:04.230Z,19.12
2018-11-02T03:02:04.249Z,19.17
2018-11-02T03:03:04.519Z,19.22
2018-11-02T03:04:04.259Z,19.16
2018-11-02T03:05:04.266Z,19.24
2018-11-02T03:06:04.284Z,19.24
2018-11-02T03:07:04.426Z,19.29
2018-11-02T03:08:04.385Z,19.26
2018-11-02T03:09:04.321Z,19.30
2018-11-02T03:10:04.346Z,19.26
2018-11-02T03:11:04.587Z,19.32
2018-11-02T03:12:04.434Z,19.34
2018-11-02T03:13:04.554Z,19.30
2018-11-02T03:14:04.422Z,19.24
2018-11-02T03:15:04.415Z,19.34
2018-11-02T03:16:04.434Z,19.42
2018-11-02T03:17:04.501Z,19.45
2018-11-02T03:18:04.605Z,19.39
2018-11-02T03:19:04.493Z,19.42
2018-11-02T03:20:04.484Z,19.45
2018-11-02T03:21:04.503Z,19.42
2018-11-02T03:22:04.513Z,19.39
2018-11-02T03:23:04.802Z,19.39
2018-11-02T03:24:04.534Z,19.32
2018-11-02T03:25:04.551Z,19.37
2018-11-02T03:26:04.612Z,19.22
2018-11-02T03:27:04.588Z,19.26
2018-11-02T03:28:04.695Z,19.29
2018-11-02T03:29:04.614Z,19.32
2018-11-02T03:30:04.752Z,19.27
2018-11-02T03:31:04.653Z,19.24
2018-11-02T03:32:04.662Z,19.24
2018-11-02T03:33:04.716Z,19.26
2018-11-02T03:34:04.700Z,19.19
2018-11-02T03:35:04.706Z,19.23
2018-11-02T03:36:04.711Z,19.12
2018-11-02T03:37:04.774Z,19.17
2018-11-02T03:38:04.882Z,19.15
2018-11-02T03:39:04.764Z,19.12
2018-11-02T03:40:04.784Z,19.15
2018-11-02T03:41:04.790Z,19.12
2018-11-02T03:42:04.813Z,19.15
2018-11-02T03:43:04.968Z,19.16
2018-11-02T03:44:04.826Z,19.17
2018-11-02T03:45:04.847Z,19.16
2018-11-02T03:46:04.980Z,19.19
2018-11-02T03:47:04.992Z,18.94
2018-11-02T03:48:04.997Z,19.01
2018-11-02T03:49:04.897Z,19.11
2018-11-02T03:50:04.954Z,19.08
2018-11-02T03:51:04.954Z,19.07
2018-11-02T03:52:04.950Z,19.00
2018-11-02T03:53:05.116Z,19.07
2018-11-02T03:54:04.989Z,18.96
2018-11-02T03:55:05.010Z,18.98
2018-11-02T03:56:05.001Z,18.97
2018-11-02T03:57:05.058Z,18.94
2018-11-02T03:58:05.201Z,18.98
2018-11-02T03:59:05.032Z,18.97
2018-11-02T04:00:05.133Z,18.97
2018-11-02T04:01:05.073Z,18.89
2018-11-02T04:02:05.205Z,18.88
2018-11-02T04:03:05.161Z,18.88
2018-11-02T04:04:05.136Z,18.83
2018-11-02T04:05:05.167Z,18.89
2018-11-02T04:06:05.262Z,18.94
2018-11-02T04:07:05.158Z,18.88
2018-11-02T04:08:05.315Z,18.88
2018-11-02T04:09:05.306Z,18.88
2018-11-02T04:10:05.224Z,18.88
2018-11-02T04:11:05.216Z,18.94
2018-11-02T04:12:05.226Z,18.96
2018-11-02T04:13:05.398Z,18.85
2018-11-02T04:14:05.247Z,18.76
2018-11-02T04:15:05.319Z,18.76
2018-11-02T04:16:05.277Z,18.66
2018-11-02T04:17:05.312Z,18.71
2018-11-02T04:18:05.363Z,18.64
2018-11-02T04:19:05.325Z,18.61
2018-11-02T04:20:05.350Z,18.55
2018-11-02T04:21:05.344Z,18.60
2018-11-02T04:22:05.381Z,18.55
2018-11-02T04:23:05.540Z,18.53
2018-11-02T04:24:05.396Z,18.55
2018-11-02T04:25:05.424Z,18.51
2018-11-02T04:26:05.421Z,18.48
2018-11-02T04:27:05.555Z,18.49
2018-11-02T04:28:05.500Z,18.49
2018-11-02T04:29:05.480Z,18.48
2018-11-02T04:30:05.630Z,18.49
2018-11-02T04:31:05.605Z,18.46
2018-11-02T04:32:05.549Z,18.52
2018-11-02T04:33:05.529Z,18.48
2018-11-02T04:34:05.649Z,18.46
2018-11-02T04:35:05.739Z,18.46
2018-11-02T04:36:05.559Z,18.53
2018-11-02T04:37:05.693Z,18.46
2018-11-02T04:38:05.580Z,18.46
2018-11-02T04:39:05.603Z,18.48
2018-11-02T04:40:05.764Z,18.46
2018-11-02T04:41:05.616Z,18.48
2018-11-02T04:42:05.638Z,18.46
2018-11-02T04:43:05.649Z,18.48
2018-11-02T04:44:05.790Z,18.49
2018-11-02T04:45:05.832Z,18.46
2018-11-02T04:46:05.716Z,18.43
2018-11-02T04:47:05.725Z,18.39
2018-11-02T04:48:05.736Z,18.41
2018-11-02T04:49:05.886Z,18.41
2018-11-02T04:50:06.019Z,18.36
2018-11-02T04:51:05.863Z,18.37
2018-11-02T04:52:05.791Z,18.43
2018-11-02T04:53:05.808Z,18.41
2018-11-02T04:54:05.792Z,18.39
2018-11-02T04:55:05.970Z,18.36
2018-11-02T04:56:05.840Z,18.36
2018-11-02T04:57:05.839Z,18.39
2018-11-02T04:58:05.859Z,18.34
2018-11-02T04:59:05.862Z,18.37
2018-11-02T05:00:06.036Z,18.33
2018-11-02T05:01:05.895Z,18.31
2018-11-02T05:02:05.952Z,18.34
2018-11-02T05:03:06.048Z,18.30
2018-11-02T05:04:05.979Z,18.33
2018-11-02T05:05:06.072Z,18.33
2018-11-02T05:06:06.017Z,18.34
2018-11-02T05:07:05.987Z,18.36
2018-11-02T05:08:05.996Z,18.43
2018-11-02T05:09:06.134Z,18.34
2018-11-02T05:10:06.061Z,18.34
2018-11-02T05:11:06.202Z,18.39
2018-11-02T05:12:06.064Z,18.41
2018-11-02T05:13:06.057Z,18.43
2018-11-02T05:14:06.100Z,18.37
2018-11-02T05:15:06.101Z,18.37
2018-11-02T05:16:06.141Z,18.41
2018-11-02T05:17:06.130Z,18.43
2018-11-02T05:18:06.125Z,18.45
2018-11-02T05:19:06.151Z,18.51
2018-11-02T05:20:06.154Z,18.46
2018-11-02T05:21:06.300Z,18.53
2018-11-02T05:22:06.193Z,18.52
2018-11-02T05:23:06.245Z,18.53
2018-11-02T05:24:06.216Z,18.60
2018-11-02T05:25:06.247Z,18.63
2018-11-02T05:26:06.400Z,18.57
2018-11-02T05:27:06.373Z,18.64
2018-11-02T05:28:06.266Z,18.67
2018-11-02T05:29:06.279Z,18.64
2018-11-02T05:30:06.304Z,18.76
2018-11-02T05:31:06.362Z,18.73
2018-11-02T05:32:06.446Z,18.76
2018-11-02T05:33:06.459Z,18.76
2018-11-02T05:34:06.377Z,18.76
2018-11-02T05:35:06.361Z,18.76
2018-11-02T05:36:06.530Z,18.76
2018-11-02T05:37:06.408Z,18.79
2018-11-02T05:38:06.444Z,18.91
2018-11-02T05:39:06.531Z,18.83
2018-11-02T05:40:06.445Z,18.82
2018-11-02T05:41:06.544Z,18.85
2018-11-02T05:42:06.463Z,18.91
2018-11-02T05:43:06.470Z,18.81
2018-11-02T05:44:06.495Z,18.97
2018-11-02T05:45:06.491Z,18.83
2018-11-02T05:46:06.586Z,18.86
2018-11-02T05:47:06.567Z,18.86
2018-11-02T05:48:06.538Z,18.88
2018-11-02T05:49:06.678Z,18.85
2018-11-02T05:50:06.597Z,18.88
2018-11-02T05:51:06.858Z,18.88
2018-11-02T05:52:06.601Z,18.96
2018-11-02T05:53:06.634Z,18.82
2018-11-02T05:54:06.757Z,18.92
2018-11-02T05:55:06.660Z,18.91
2018-11-02T05:56:06.811Z,18.88
2018-11-02T05:57:06.788Z,18.91
2018-11-02T05:58:06.701Z,18.88
2018-11-02T05:59:06.692Z,18.88
2018-11-02T06:00:06.727Z,18.85
2018-11-02T06:01:06.770Z,18.96
2018-11-02T06:02:06.735Z,18.83
2018-11-02T06:03:06.763Z,18.92
2018-11-02T06:04:06.768Z,18.94
2018-11-02T06:05:06.770Z,18.83
2018-11-02T06:06:06.958Z,18.85
2018-11-02T06:07:06.819Z,18.85
2018-11-02T06:08:06.881Z,18.76
2018-11-02T06:09:06.845Z,18.83
2018-11-02T06:10:06.972Z,18.85
2018-11-02T06:11:07.012Z,18.85
2018-11-02T06:12:06.875Z,18.83
2018-11-02T06:13:06.949Z,18.83
2018-11-02T06:14:06.895Z,18.89
2018-11-02T06:15:06.929Z,18.91
2018-11-02T06:16:06.989Z,18.82
2018-11-02T06:17:06.955Z,18.88
2018-11-02T06:18:06.954Z,18.81
2018-11-02T06:19:06.974Z,18.91
2018-11-02T06:20:07.024Z,18.82
2018-11-02T06:21:07.099Z,18.91
2018-11-02T06:22:07.006Z,18.88
2018-11-02T06:23:07.039Z,18.88
2018-11-02T06:24:07.114Z,18.83
2018-11-02T06:25:07.065Z,18.85
2018-11-02T06:26:07.141Z,18.85
2018-11-02T06:27:07.087Z,18.91
2018-11-02T06:28:07.090Z,18.82
2018-11-02T06:29:07.264Z,18.82
2018-11-02T06:30:07.136Z,18.88
2018-11-02T06:31:07.264Z,18.86
2018-11-02T06:32:07.273Z,18.83
2018-11-02T06:33:07.169Z,18.86
2018-11-02T06:34:07.331Z,18.83
2018-11-02T06:35:07.203Z,18.85
2018-11-02T06:36:07.215Z,18.94
2018-11-02T06:37:07.227Z,18.86
2018-11-02T06:38:07.362Z,18.82
2018-11-02T06:39:07.400Z,18.89
2018-11-02T06:40:07.259Z,18.94
2018-11-02T06:41:07.400Z,18.88
2018-11-02T06:42:07.311Z,18.88
2018-11-02T06:43:07.312Z,18.91
2018-11-02T06:44:07.429Z,18.91
2018-11-02T06:45:07.441Z,18.96
2018-11-02T06:46:07.399Z,18.92
2018-11-02T06:47:07.358Z,18.88
2018-11-02T06:48:07.424Z,18.91
2018-11-02T06:49:07.385Z,18.94
2018-11-02T06:50:07.398Z,18.91
2018-11-02T06:51:07.776Z,18.91
2018-11-02T06:52:07.557Z,18.97
2018-11-02T06:53:07.456Z,18.92
2018-11-02T06:54:07.479Z,18.96
2018-11-02T06:55:07.466Z,18.91
2018-11-02T06:56:07.541Z,18.96
2018-11-02T06:57:07.508Z,18.92
2018-11-02T06:58:07.512Z,18.92
2018-11-02T06:59:07.648Z,18.97
2018-11-02T07:00:07.869Z,18.94
2018-11-02T07:01:07.680Z,18.97
2018-11-02T07:02:07.580Z,18.83
2018-11-02T07:03:07.589Z,18.92
2018-11-02T07:04:07.606Z,18.94
2018-11-02T07:05:07.768Z,18.92
2018-11-02T07:06:07.642Z,18.97
2018-11-02T07:07:07.720Z,19.00
2018-11-02T07:08:07.725Z,18.91
2018-11-02T07:09:07.675Z,18.96
2018-11-02T07:10:07.839Z,18.97
2018-11-02T07:11:07.818Z,18.97
2018-11-02T07:12:07.715Z,18.96
2018-11-02T07:13:07.716Z,18.97
2018-11-02T07:14:07.752Z,18.97
2018-11-02T07:15:07.899Z,19.00
2018-11-02T07:16:07.771Z,19.05
2018-11-02T07:17:07.798Z,18.96
2018-11-02T07:18:07.798Z,18.97
2018-11-02T07:19:07.812Z,18.97
2018-11-02T07:20:08.095Z,19.00
2018-11-02T07:21:07.833Z,19.00
2018-11-02T07:22:07.864Z,18.96
2018-11-02T07:23:07.879Z,19.00
2018-11-02T07:24:07.868Z,19.00
2018-11-02T07:25:08.255Z,18.98
2018-11-02T07:26:08.086Z,18.97
2018-11-02T07:27:07.980Z,18.96
2018-11-02T07:28:08.054Z,18.96
2018-11-02T07:29:08.069Z,18.92
2018-11-02T07:30:08.107Z,18.94
2018-11-02T07:31:08.016Z,18.96
2018-11-02T07:32:08.000Z,19.00
2018-11-02T07:33:08.035Z,18.98
2018-11-02T07:34:08.056Z,18.98
2018-11-02T07:35:08.178Z,18.97
2018-11-02T07:36:08.053Z,18.98
2018-11-02T07:37:08.048Z,18.94
2018-11-02T07:38:08.068Z,19.05
2018-11-02T07:39:08.094Z,19.04
2018-11-02T07:40:08.180Z,18.97
2018-11-02T07:41:08.217Z,18.96
2018-11-02T07:42:08.133Z,19.00
2018-11-02T07:43:08.142Z,19.05
2018-11-02T07:44:08.149Z,19.15
2018-11-02T07:45:08.298Z,19.15
2018-11-02T07:46:08.308Z,19.08
2018-11-02T07:47:08.347Z,19.12
2018-11-02T07:48:08.219Z,19.19
2018-11-02T07:49:08.274Z,19.12
2018-11-02T07:50:08.248Z,19.08
2018-11-02T07:51:08.265Z,19.11
2018-11-02T07:52:08.405Z,19.22
2018-11-02T07:53:08.285Z,19.11
2018-11-02T07:54:08.297Z,19.12
2018-11-02T07:55:08.313Z,19.16
2018-11-02T07:56:08.317Z,19.12
2018-11-02T07:57:08.399Z,19.12
2018-11-02T07:58:08.356Z,19.12
2018-11-02T07:59:08.387Z,19.16
2018-11-02T08:00:08.463Z,19.12
2018-11-02T08:01:08.399Z,19.12
2018-11-02T08:02:08.582Z,19.17
2018-11-02T08:03:08.419Z,19.19
2018-11-02T08:04:08.563Z,19.17
2018-11-02T08:05:08.458Z,19.08
2018-11-02T08:06:08.475Z,19.12
2018-11-02T08:07:08.653Z,19.11
2018-11-02T08:08:08.497Z,19.11
2018-11-02T08:09:08.512Z,19.08
2018-11-02T08:10:08.645Z,19.08
2018-11-02T08:11:08.659Z,19.05
2018-11-02T08:12:08.587Z,19.00
2018-11-02T08:13:08.557Z,19.04
2018-11-02T08:14:08.728Z,19.01
2018-11-02T08:15:08.582Z,18.96
2018-11-02T08:16:08.618Z,19.00
2018-11-02T08:17:08.622Z,18.97
2018-11-02T08:18:08.755Z,18.96
2018-11-02T08:19:08.921Z,18.92
2018-11-02T08:20:08.652Z,18.97
2018-11-02T08:21:08.719Z,18.98
2018-11-02T08:22:08.702Z,18.82
2018-11-02T08:23:08.708Z,18.96
2018-11-02T08:24:08.778Z,18.91
2018-11-02T08:25:08.734Z,18.89
2018-11-02T08:26:08.867Z,18.88
2018-11-02T08:27:08.880Z,18.82
2018-11-02T08:28:08.770Z,18.83
2018-11-02T08:29:08.956Z,18.91
2018-11-02T08:30:08.926Z,18.88
2018-11-02T08:31:08.939Z,18.86
2018-11-02T08:32:08.917Z,18.88
2018-11-02T08:33:08.841Z,18.86
2018-11-02T08:34:08.947Z,18.81
2018-11-02T08:35:08.888Z,18.88
2018-11-02T08:36:08.894Z,18.94
2018-11-02T08:37:08.896Z,18.91
2018-11-02T08:38:09.036Z,18.97
2018-11-02T08:39:09.082Z,19.04
2018-11-02T08:40:08.942Z,19.12
2018-11-02T08:41:08.958Z,19.01
2018-11-02T08:42:08.965Z,19.17
2018-11-02T08:43:08.980Z,19.09
2018-11-02T08:44:09.039Z,19.11
2018-11-02T08:45:09.014Z,19.24
2018-11-02T08:46:09.149Z,19.23
2018-11-02T08:47:09.034Z,19.17
2018-11-02T08:48:09.054Z,19.32
2018-11-02T08:49:09.112Z,19.30
2018-11-02T08:50:09.091Z,19.39
2018-11-02T08:51:09.111Z,19.38
2018-11-02T08:52:09.121Z,19.49
2018-11-02T08:53:09.246Z,19.48
2018-11-02T08:54:09.243Z,19.49
2018-11-02T08:55:09.152Z,19.60
2018-11-02T08:56:09.179Z,19.56
2018-11-02T08:57:09.179Z,19.59
2018-11-02T08:58:09.387Z,19.59
2018-11-02T08:59:09.397Z,19.72
2018-11-02T09:00:09.299Z,19.66
2018-11-02T09:01:09.236Z,19.71
2018-11-02T09:02:09.256Z,19.62
2018-11-02T09:03:09.269Z,19.77
2018-11-02T09:04:09.440Z,19.77
2018-11-02T09:05:09.347Z,19.78
2018-11-02T09:06:09.302Z,19.78
2018-11-02T09:07:09.340Z,19.85
2018-11-02T09:08:09.340Z,19.96
2018-11-02T09:09:09.380Z,19.90
2018-11-02T09:10:09.369Z,19.93
2018-11-02T09:11:09.381Z,20.02
2018-11-02T09:12:09.599Z,20.03
2018-11-02T09:13:09.415Z,20.08
2018-11-02T09:14:09.551Z,20.12
2018-11-02T09:15:09.445Z,20.34
2018-11-02T09:16:09.584Z,20.34
2018-11-02T09:17:09.517Z,20.42
2018-11-02T09:18:09.502Z,20.59
2018-11-02T09:19:09.548Z,20.70
2018-11-02T09:20:09.687Z,20.73
2018-11-02T09:21:09.545Z,20.92
2018-11-02T09:22:09.661Z,20.92
2018-11-02T09:23:09.566Z,20.95
2018-11-02T09:24:09.581Z,21.05
2018-11-02T09:25:09.607Z,21.19
2018-11-02T09:26:09.616Z,21.32
2018-11-02T09:27:09.803Z,21.44
2018-11-02T09:28:09.763Z,21.62
2018-11-02T09:29:09.778Z,21.62
2018-11-02T09:30:09.791Z,21.70
2018-11-02T09:31:09.738Z,21.89
2018-11-02T09:32:09.845Z,22.00
2018-11-02T09:33:09.763Z,22.18
2018-11-02T09:34:09.724Z,22.21
2018-11-02T09:35:09.771Z,22.15
2018-11-02T09:36:09.772Z,22.22
2018-11-02T09:37:09.830Z,22.19
2018-11-02T09:38:09.795Z,22.19
2018-11-02T09:39:09.806Z,22.22
2018-11-02T09:40:09.868Z,22.30
2018-11-02T09:41:09.885Z,22.40
2018-11-02T09:42:09.865Z,22.49
2018-11-02T09:43:09.871Z,22.56
2018-11-02T09:44:09.909Z,22.62
2018-11-02T09:45:09.944Z,22.56
2018-11-02T09:46:09.915Z,22.65
2018-11-02T09:47:09.955Z,22.63
2018-11-02T09:48:10.013Z,22.63
2018-11-02T09:49:10.098Z,22.62
2018-11-02T09:50:09.990Z,22.62
2018-11-02T09:51:10.173Z,22.49
2018-11-02T09:52:10.147Z,22.49
2018-11-02T09:53:10.039Z,22.38
2018-11-02T09:54:10.182Z,22.47
2018-11-02T09:55:10.084Z,22.43
2018-11-02T09:56:10.095Z,22.44
2018-11-02T09:57:10.099Z,22.44
2018-11-02T09:58:10.118Z,22.47
2018-11-02T09:59:10.147Z,22.53
2018-11-02T10:00:10.161Z,22.52
2018-11-02T10:01:10.235Z,22.51
2018-11-02T10:02:10.204Z,22.46
2018-11-02T10:03:10.202Z,22.47
2018-11-02T10:04:10.221Z,22.55
2018-11-02T10:05:10.362Z,22.55
2018-11-02T10:06:10.432Z,22.53
2018-11-02T10:07:10.266Z,22.58
2018-11-02T10:08:10.278Z,22.61
2018-11-02T10:09:10.338Z,22.67
2018-11-02T10:10:10.346Z,22.63
2018-11-02T10:11:10.403Z,22.70
2018-11-02T10:12:10.353Z,22.70
2018-11-02T10:13:10.369Z,22.73
2018-11-02T10:14:10.394Z,22.84
2018-11-02T10:15:10.527Z,22.76
2018-11-02T10:16:10.571Z,23.01
2018-11-02T10:17:10.442Z,22.92
2018-11-02T10:18:10.451Z,22.92
2018-11-02T10:19:10.468Z,22.83
2018-11-02T10:20:10.486Z,22.71
2018-11-02T10:21:10.560Z,22.78
2018-11-02T10:22:10.642Z,22.84
2018-11-02T10:23:10.530Z,22.93
2018-11-02T10:24:10.676Z,23.01
2018-11-02T10:25:10.561Z,23.13
2018-11-02T10:26:10.729Z,23.14
2018-11-02T10:27:10.617Z,23.33
2018-11-02T10:28:10.635Z,23.29
2018-11-02T10:29:10.646Z,23.51
2018-11-02T10:30:10.684Z,23.66
2018-11-02T10:31:10.871Z,23.71
2018-11-02T10:32:10.698Z,23.73
2018-11-02T10:33:10.709Z,23.84
2018-11-02T10:34:10.729Z,24.04
2018-11-02T10:35:10.754Z,24.09
2018-11-02T10:37:10.776Z,24.26
2018-11-02T10:38:10.913Z,24.50
2018-11-02T10:39:10.796Z,24.58
2018-11-02T10:40:10.948Z,24.61
2018-11-02T10:41:10.991Z,24.53
2018-11-02T10:42:10.855Z,24.48
2018-11-02T10:43:10.868Z,24.46
2018-11-02T10:44:10.958Z,24.50
2018-11-02T10:45:10.902Z,24.63
2018-11-02T10:46:11.070Z,24.68
2018-11-02T10:47:11.066Z,24.74
2018-11-02T10:48:10.972Z,24.84
2018-11-02T10:49:11.011Z,24.93
2018-11-02T10:50:11.122Z,24.93
2018-11-02T10:51:11.222Z,25.14
2018-11-02T10:52:11.056Z,25.18
2018-11-02T10:53:11.063Z,25.33
2018-11-02T10:54:11.060Z,25.44
2018-11-02T10:55:11.208Z,25.49
2018-11-02T10:56:11.151Z,25.77
2018-11-02T10:57:11.129Z,25.88
2018-11-02T10:58:11.142Z,25.92
2018-11-02T10:59:11.156Z,26.01
2018-11-02T11:00:11.176Z,25.96
2018-11-02T11:01:11.407Z,26.04
2018-11-02T11:02:11.211Z,25.96
2018-11-02T11:03:11.357Z,25.98
2018-11-02T11:04:11.260Z,26.03
2018-11-02T11:05:11.280Z,25.93
2018-11-02T11:06:11.281Z,25.95
2018-11-02T11:07:11.473Z,25.92
2018-11-02T11:08:11.313Z,26.07
2018-11-02T11:09:11.355Z,26.07
2018-11-02T11:10:11.366Z,26.10
2018-11-02T11:11:11.387Z,26.23
2018-11-02T11:12:11.658Z,26.51
2018-11-02T11:13:11.729Z,26.68
2018-11-02T11:14:11.447Z,26.83
2018-11-02T11:15:11.452Z,27.08
2018-11-02T11:16:11.472Z,27.22
2018-11-02T11:17:11.559Z,27.22
2018-11-02T11:18:11.514Z,27.30
2018-11-02T11:19:11.650Z,27.44
2018-11-02T11:20:11.541Z,27.50
2018-11-02T11:21:11.639Z,27.35
2018-11-02T11:22:11.694Z,27.33
2018-11-02T11:23:11.602Z,27.18
2018-11-02T11:24:11.625Z,27.23
2018-11-02T11:25:11.762Z,27.41
2018-11-02T11:26:11.664Z,27.72
2018-11-02T11:27:11.875Z,27.91
2018-11-02T11:28:11.702Z,28.08
2018-11-02T11:29:11.792Z,27.91
2018-11-02T11:30:11.737Z,27.97
2018-11-02T11:31:11.751Z,27.97
2018-11-02T11:32:11.788Z,28.06
2018-11-02T11:33:11.942Z,28.22
2018-11-02T11:34:11.805Z,28.25
2018-11-02T11:35:11.844Z,28.45
2018-11-02T11:36:11.899Z,28.60
2018-11-02T11:37:11.994Z,28.72
2018-11-02T11:38:11.952Z,28.77
2018-11-02T11:39:11.917Z,28.68
2018-11-02T11:40:11.930Z,28.71
2018-11-02T11:41:12.006Z,28.70
2018-11-02T11:42:12.099Z,28.71
2018-11-02T11:43:12.157Z,28.77
2018-11-02T11:44:12.004Z,28.90
2018-11-02T11:45:12.154Z,29.02
2018-11-02T11:46:12.060Z,28.90
2018-11-02T11:47:12.077Z,28.59
2018-11-02T11:48:12.144Z,28.35
2018-11-02T11:49:12.196Z,28.52
2018-11-02T11:50:12.215Z,28.38
2018-11-02T11:51:12.157Z,28.59
2018-11-02T11:52:12.180Z,28.77
2018-11-02T11:53:12.346Z,29.10
2018-11-02T11:54:12.213Z,29.21
2018-11-02T11:55:12.233Z,29.32
2018-11-02T11:56:12.253Z,29.52
2018-11-02T11:57:12.304Z,29.68
2018-11-02T11:58:12.340Z,29.79
2018-11-02T11:59:12.434Z,30.01
2018-11-02T12:00:12.356Z,30.06
2018-11-02T12:01:12.343Z,30.11
2018-11-02T12:02:12.577Z,30.01
2018-11-02T12:03:12.504Z,29.90
2018-11-02T12:04:12.425Z,29.98
2018-11-02T12:05:12.432Z,30.03
2018-11-02T12:06:12.452Z,29.98
2018-11-02T12:07:12.479Z,30.08
2018-11-02T12:08:12.767Z,30.06
2018-11-02T12:09:12.517Z,30.13
2018-11-02T12:10:12.568Z,30.11
2018-11-02T12:11:12.561Z,30.27
2018-11-02T12:12:12.592Z,30.31
2018-11-02T12:13:12.875Z,30.54
2018-11-02T12:14:12.628Z,30.56
2018-11-02T12:15:12.649Z,30.29
2018-11-02T12:16:12.662Z,30.32
2018-11-02T12:17:12.807Z,30.26
2018-11-02T12:18:12.975Z,30.20
2018-11-02T12:19:12.713Z,30.17
2018-11-02T12:20:12.758Z,29.98
2018-11-02T12:21:12.780Z,29.83
2018-11-02T12:22:12.842Z,29.55
2018-11-02T12:23:12.917Z,29.61
2018-11-02T12:24:12.949Z,29.57
2018-11-02T12:25:12.905Z,29.35
2018-11-02T12:26:12.994Z,29.34
2018-11-02T12:27:12.881Z,29.32
2018-11-02T12:28:13.049Z,29.37
2018-11-02T12:29:12.936Z,29.39
2018-11-02T12:30:12.949Z,29.43
2018-11-02T12:31:12.985Z,29.40
2018-11-02T12:32:12.988Z,29.47
2018-11-02T12:33:13.159Z,29.32
2018-11-02T12:34:13.032Z,29.24
2018-11-02T12:35:13.063Z,29.30
2018-11-02T12:36:13.080Z,29.39
2018-11-02T12:37:13.197Z,29.05
2018-11-02T12:38:13.249Z,29.05
2018-11-02T12:39:13.167Z,29.06
2018-11-02T12:40:13.154Z,29.12
2018-11-02T12:41:13.208Z,29.15
2018-11-02T12:42:13.222Z,29.13
2018-11-02T12:43:13.317Z,29.27
2018-11-02T12:44:13.253Z,29.30
2018-11-02T12:45:13.245Z,29.46
2018-11-02T12:46:13.425Z,29.62
2018-11-02T12:47:13.297Z,29.64
2018-11-02T12:48:13.429Z,29.69
2018-11-02T12:49:13.785Z,29.86
2018-11-02T12:50:13.441Z,29.89
2018-11-02T12:51:13.520Z,29.92
2018-11-02T12:52:13.397Z,30.02
2018-11-02T12:53:13.434Z,30.05